createdAt,value
2022-11-08T00:00:56.914Z,14.63
2022-11-08T00:02:31.683Z,14.43
2022-11-08T00:04:07.062Z,14.45
2022-11-08T00:05:57.831Z,14.75
2022-11-08T00:07:48.636Z,13.25
2022-11-08T00:09:39.773Z,12.95
2022-11-08T00:11:30.562Z,13.07
2022-11-08T00:13:24.545Z,13.07
2022-11-08T00:14:58.339Z,13.30
2022-11-08T00:16:30.681Z,14.27
2022-11-08T00:18:05.879Z,15.20
2022-11-08T00:19:38.012Z,15.95
2022-11-08T00:21:11.390Z,16.95
2022-11-08T00:22:44.860Z,16.48
2022-11-08T00:24:17.138Z,16.63
2022-11-08T00:25:54.722Z,18.10
2022-11-08T00:27:29.028Z,16.52
2022-11-08T00:29:02.665Z,15.48
2022-11-08T00:30:36.295Z,17.05
2022-11-08T00:32:13.032Z,17.65
2022-11-08T00:33:47.723Z,17.38
2022-11-08T00:35:20.870Z,19.27
2022-11-08T00:36:54.569Z,16.75
2022-11-08T00:38:27.765Z,17.67
2022-11-08T00:40:01.035Z,18.15
2022-11-08T00:41:34.704Z,17.42
2022-11-08T00:43:07.885Z,18.25
2022-11-08T00:44:41.064Z,16.10
2022-11-08T00:46:14.402Z,17.33
2022-11-08T00:47:47.786Z,16.90
2022-11-08T00:49:22.676Z,18.33
2022-11-08T00:50:55.879Z,18.08
2022-11-08T00:52:29.017Z,17.05
2022-11-08T00:54:02.559Z,16.90
2022-11-08T00:55:35.926Z,17.25
2022-11-08T00:57:09.091Z,16.05
2022-11-08T00:58:43.936Z,15.93
2022-11-08T01:00:17.911Z,16.98
2022-11-08T01:01:51.229Z,17.60
2022-11-08T01:03:24.139Z,16.50
2022-11-08T01:04:58.976Z,16.52
2022-11-08T01:06:31.422Z,17.85
2022-11-08T01:08:04.786Z,16.35
2022-11-08T01:09:38.081Z,16.55
2022-11-08T01:11:13.066Z,18.63
2022-11-08T01:12:46.283Z,16.50
2022-11-08T01:14:19.509Z,16.92
2022-11-08T01:15:51.855Z,16.50
2022-11-08T01:17:25.288Z,18.88
2022-11-08T01:18:59.489Z,17.55
2022-11-08T01:20:34.139Z,18.70
2022-11-08T01:22:07.334Z,17.20
2022-11-08T01:23:41.141Z,18.45
2022-11-08T01:25:14.332Z,18.42
2022-11-08T01:26:47.517Z,19.33
2022-11-08T01:28:20.118Z,19.77
2022-11-08T01:29:54.037Z,19.33
2022-11-08T01:31:29.423Z,18.55
2022-11-08T01:33:02.678Z,17.73
2022-11-08T01:34:36.115Z,18.42
2022-11-08T01:36:12.276Z,18.00
2022-11-08T01:37:45.507Z,19.15
2022-11-08T01:39:18.775Z,18.75
2022-11-08T01:40:50.918Z,17.83
2022-11-08T01:42:29.095Z,18.83
2022-11-08T01:44:02.419Z,18.40
2022-11-08T01:46:18.206Z,18.52
2022-11-08T01:47:51.696Z,17.70
2022-11-08T01:49:41.277Z,17.73
2022-11-08T01:51:18.362Z,16.77
2022-11-08T01:52:55.442Z,18.05
2022-11-08T01:54:33.619Z,17.90
2022-11-08T01:56:08.312Z,16.50
2022-11-08T01:57:48.059Z,16.23
2022-11-08T01:59:20.749Z,15.90
2022-11-08T02:00:54.367Z,16.50
2022-11-08T02:02:29.467Z,16.38
2022-11-08T02:04:03.870Z,16.05
2022-11-08T02:05:37.437Z,16.58
2022-11-08T02:07:13.249Z,15.88
2022-11-08T02:08:46.980Z,15.50
2022-11-08T02:10:23.456Z,16.02
2022-11-08T02:11:57.553Z,16.90
2022-11-08T02:13:33.406Z,15.65
2022-11-08T02:15:07.685Z,15.10
2022-11-08T02:16:39.863Z,16.25
2022-11-08T02:18:15.187Z,16.17
2022-11-08T02:19:51.672Z,16.38
2022-11-08T02:21:29.492Z,16.55
2022-11-08T02:23:14.591Z,16.45
2022-11-08T02:24:49.542Z,15.38
2022-11-08T02:26:26.209Z,17.80
2022-11-08T02:27:59.325Z,16.63
2022-11-08T02:29:34.934Z,17.50
2022-11-08T02:31:10.196Z,17.92
2022-11-08T02:32:43.977Z,16.45
2022-11-08T02:34:16.971Z,17.40
2022-11-08T02:35:55.191Z,17.08
2022-11-08T02:37:29.058Z,16.33
2022-11-08T02:39:02.260Z,17.90
2022-11-08T02:40:48.058Z,18.08
2022-11-08T02:42:21.989Z,17.65
2022-11-08T02:43:55.333Z,16.63
2022-11-08T02:45:28.588Z,16.60
2022-11-08T02:47:02.011Z,17.67
2022-11-08T02:48:34.305Z,16.08
2022-11-08T02:50:08.549Z,16.30
2022-11-08T02:51:40.637Z,16.80
2022-11-08T02:53:13.915Z,16.90
2022-11-08T02:54:47.130Z,15.73
2022-11-08T02:56:20.936Z,17.08
2022-11-08T02:57:54.121Z,16.25
2022-11-08T02:59:27.335Z,16.10
2022-11-08T03:00:59.646Z,17.40
2022-11-08T03:02:33.008Z,15.05
2022-11-08T03:04:06.703Z,15.85
2022-11-08T03:05:39.875Z,17.20
2022-11-08T03:07:13.105Z,15.93
2022-11-08T03:08:45.352Z,16.15
2022-11-08T03:10:19.343Z,16.80
2022-11-08T03:11:53.837Z,16.27
2022-11-08T03:13:27.073Z,15.23
2022-11-08T03:15:00.623Z,16.73
2022-11-08T03:16:33.816Z,16.98
2022-11-08T03:18:07.541Z,19.10
2022-11-08T03:19:40.693Z,18.80
2022-11-08T03:21:13.175Z,15.25
2022-11-08T03:22:46.717Z,16.50
2022-11-08T03:24:19.833Z,16.88
2022-11-08T03:25:53.037Z,48.58
2022-11-08T03:27:27.962Z,68.53
2022-11-08T03:29:01.192Z,22.40
2022-11-08T03:30:33.531Z,17.98
2022-11-08T03:32:06.955Z,20.25
2022-11-08T03:33:39.702Z,20.70
2022-11-08T03:35:12.911Z,21.63
2022-11-08T03:36:46.125Z,19.50
2022-11-08T03:38:18.972Z,22.20
2022-11-08T03:39:53.018Z,19.52
2022-11-08T03:41:26.389Z,17.80
2022-11-08T03:43:01.077Z,17.80
2022-11-08T03:44:34.415Z,17.55
2022-11-08T03:46:08.073Z,15.88
2022-11-08T03:47:42.019Z,16.98
2022-11-08T03:49:15.217Z,16.35
2022-11-08T03:50:47.461Z,17.65
2022-11-08T03:52:20.868Z,17.02
2022-11-08T03:53:54.176Z,17.58
2022-11-08T03:55:29.182Z,16.52
2022-11-08T03:57:02.367Z,17.85
2022-11-08T03:58:37.190Z,17.23
2022-11-08T04:00:11.939Z,16.38
2022-11-08T04:01:45.263Z,16.50
2022-11-08T04:03:18.636Z,17.42
2022-11-08T04:04:52.055Z,16.65
2022-11-08T04:06:25.497Z,16.30
2022-11-08T04:07:58.697Z,16.05
2022-11-08T04:09:31.853Z,52.05
2022-11-08T04:11:19.413Z,46.05
2022-11-08T04:13:10.028Z,18.02
2022-11-08T04:15:02.053Z,16.63
2022-11-08T04:16:35.899Z,15.93
2022-11-08T04:18:26.763Z,17.95
2022-11-08T04:20:13.700Z,16.17
2022-11-08T04:21:49.303Z,17.30
2022-11-08T04:23:22.618Z,17.15
2022-11-08T04:24:55.951Z,18.55
2022-11-08T04:26:29.081Z,16.83
2022-11-08T04:28:01.462Z,17.38
2022-11-08T04:29:34.703Z,16.75
2022-11-08T04:31:12.150Z,17.10
2022-11-08T04:32:45.550Z,23.52
2022-11-08T04:34:18.062Z,144.93
2022-11-08T04:35:52.186Z,16.83
2022-11-08T04:37:25.465Z,17.05
2022-11-08T04:38:58.621Z,16.83
2022-11-08T04:40:31.853Z,17.13
2022-11-08T04:42:05.237Z,17.25
2022-11-08T04:43:38.858Z,17.60
2022-11-08T04:45:12.408Z,17.08
2022-11-08T04:46:47.238Z,18.25
2022-11-08T04:48:19.694Z,18.65
2022-11-08T04:49:54.342Z,19.05
2022-11-08T04:51:29.440Z,18.40
2022-11-08T04:53:03.037Z,19.80
2022-11-08T04:54:36.161Z,18.45
2022-11-08T04:56:11.241Z,18.15
2022-11-08T04:57:44.329Z,18.88
2022-11-08T04:59:17.753Z,19.08
2022-11-08T05:00:50.970Z,17.83
2022-11-08T05:02:25.713Z,18.30
2022-11-08T05:03:59.039Z,16.55
2022-11-08T05:05:32.573Z,18.98
2022-11-08T05:07:05.791Z,17.67
2022-11-08T05:08:39.247Z,16.90
2022-11-08T05:10:11.481Z,18.58
2022-11-08T05:11:44.925Z,17.27
2022-11-08T05:13:18.148Z,18.63
2022-11-08T05:14:51.401Z,19.35
2022-11-08T05:16:26.224Z,18.23
2022-11-08T05:18:01.074Z,17.67
2022-11-08T05:19:51.951Z,17.40
2022-11-08T05:21:43.277Z,16.92
2022-11-08T05:23:25.863Z,15.90
2022-11-08T05:24:59.058Z,15.35
2022-11-08T05:26:35.349Z,17.95
2022-11-08T05:28:08.550Z,16.00
2022-11-08T05:29:42.387Z,16.10
2022-11-08T05:31:16.294Z,16.70
2022-11-08T05:32:51.576Z,16.38
2022-11-08T05:34:26.155Z,17.10
2022-11-08T05:36:05.886Z,19.30
2022-11-08T05:37:42.440Z,20.90
2022-11-08T05:39:15.621Z,19.20
2022-11-08T05:40:48.762Z,17.85
2022-11-08T05:42:22.232Z,17.10
2022-11-08T05:43:56.583Z,17.75
2022-11-08T05:45:29.857Z,18.10
2022-11-08T05:47:03.047Z,19.52
2022-11-08T05:48:36.938Z,17.17
2022-11-08T05:50:14.344Z,18.30
2022-11-08T05:51:51.551Z,20.42
2022-11-08T05:53:24.820Z,18.08
2022-11-08T05:54:58.341Z,21.90
2022-11-08T05:56:31.466Z,21.85
2022-11-08T05:58:04.750Z,18.60
2022-11-08T05:59:36.923Z,20.95
2022-11-08T06:01:12.461Z,19.17
2022-11-08T06:02:45.859Z,18.95
2022-11-08T06:04:19.032Z,18.67
2022-11-08T06:05:53.720Z,18.73
2022-11-08T06:07:27.310Z,19.15
2022-11-08T06:09:00.464Z,18.27
2022-11-08T06:10:33.750Z,18.67
2022-11-08T06:12:07.526Z,18.98
2022-11-08T06:13:41.010Z,25.73
2022-11-08T06:15:14.232Z,22.83
2022-11-08T06:16:47.528Z,27.13
2022-11-08T06:18:20.772Z,26.73
2022-11-08T06:19:54.160Z,24.75
2022-11-08T06:21:28.877Z,23.98
2022-11-08T06:23:02.169Z,22.35
2022-11-08T06:24:35.431Z,21.95
2022-11-08T06:26:09.358Z,20.75
2022-11-08T06:27:42.570Z,20.17
2022-11-08T06:29:16.005Z,18.27
2022-11-08T06:30:49.333Z,18.95
2022-11-08T06:32:22.960Z,17.70
2022-11-08T06:33:56.344Z,19.45
2022-11-08T06:35:29.618Z,17.30
2022-11-08T06:37:04.993Z,19.60
2022-11-08T06:38:38.563Z,19.08
2022-11-08T06:40:12.659Z,20.30
2022-11-08T06:41:45.842Z,19.42
2022-11-08T06:43:20.317Z,19.45
2022-11-08T06:44:53.954Z,20.00
2022-11-08T06:46:27.567Z,21.40
2022-11-08T06:48:03.638Z,19.73
2022-11-08T06:49:37.847Z,20.88
2022-11-08T06:51:11.439Z,21.90
2022-11-08T06:52:46.084Z,20.10
2022-11-08T06:54:24.459Z,20.27
2022-11-08T06:56:00.264Z,19.85
2022-11-08T06:57:34.893Z,20.58
2022-11-08T06:59:08.133Z,21.80
2022-11-08T07:00:41.404Z,21.52
2022-11-08T07:02:14.826Z,23.63
2022-11-08T07:03:48.347Z,22.80
2022-11-08T07:05:21.628Z,22.52
2022-11-08T07:06:54.886Z,24.67
2022-11-08T07:08:29.955Z,22.73
2022-11-08T07:10:04.263Z,21.63
2022-11-08T07:11:37.990Z,21.73
2022-11-08T07:13:13.741Z,23.23
2022-11-08T07:14:46.881Z,25.13
2022-11-08T07:16:20.239Z,24.70
2022-11-08T07:17:53.605Z,24.67
2022-11-08T07:19:26.891Z,26.95
2022-11-08T07:21:01.275Z,24.30
2022-11-08T07:22:34.488Z,26.33
2022-11-08T07:24:09.400Z,23.10
2022-11-08T07:25:42.282Z,22.23
2022-11-08T07:27:15.489Z,25.25
2022-11-08T07:28:48.872Z,25.50
2022-11-08T07:30:22.027Z,27.05
2022-11-08T07:31:55.289Z,25.08
2022-11-08T07:33:28.906Z,22.77
2022-11-08T07:35:02.374Z,24.75
2022-11-08T07:36:35.605Z,24.23
2022-11-08T07:38:08.869Z,26.77
2022-11-08T07:39:43.814Z,25.33
2022-11-08T07:41:17.311Z,25.52
2022-11-08T07:43:10.668Z,25.73
2022-11-08T07:44:44.083Z,24.00
2022-11-08T07:46:17.419Z,23.63
2022-11-08T07:47:58.517Z,25.65
2022-11-08T07:49:31.652Z,25.52
2022-11-08T07:51:04.909Z,24.88
2022-11-08T07:52:38.163Z,27.23
2022-11-08T07:54:11.556Z,25.67
2022-11-08T07:55:48.302Z,25.63
2022-11-08T07:57:21.590Z,25.30
2022-11-08T07:58:54.816Z,24.77
2022-11-08T08:00:28.300Z,26.58
2022-11-08T08:02:01.574Z,25.35
2022-11-08T08:03:34.891Z,24.58
2022-11-08T08:05:08.774Z,27.30
2022-11-08T08:06:42.133Z,26.23
2022-11-08T08:08:15.600Z,25.23
2022-11-08T08:09:50.230Z,25.40
2022-11-08T08:11:27.184Z,27.60
2022-11-08T08:13:05.195Z,26.63
2022-11-08T08:14:38.546Z,26.98
2022-11-08T08:16:12.032Z,28.08
2022-11-08T08:17:45.159Z,26.42
2022-11-08T08:19:25.151Z,26.83
2022-11-08T08:20:58.744Z,26.73
2022-11-08T08:22:32.134Z,27.92
2022-11-08T08:24:05.850Z,28.00
2022-11-08T08:25:40.883Z,27.55
2022-11-08T08:27:15.578Z,26.77
2022-11-08T08:28:49.245Z,26.85
2022-11-08T08:30:23.218Z,27.10
2022-11-08T08:31:57.502Z,27.88
2022-11-08T08:33:30.679Z,26.98
2022-11-08T08:35:04.015Z,26.95
2022-11-08T08:36:37.151Z,26.30
2022-11-08T08:38:12.229Z,27.95
2022-11-08T08:39:45.391Z,29.75
2022-11-08T08:41:30.790Z,28.17
2022-11-08T08:43:13.028Z,29.90
2022-11-08T08:44:53.161Z,30.95
2022-11-08T08:46:26.423Z,31.27
2022-11-08T08:48:00.307Z,33.67
2022-11-08T08:49:33.443Z,32.60
2022-11-08T08:51:07.029Z,31.23
2022-11-08T08:52:40.746Z,27.92
2022-11-08T08:54:15.454Z,28.13
2022-11-08T08:55:52.380Z,27.73
2022-11-08T08:57:25.899Z,28.25
2022-11-08T09:02:47.537Z,27.20
2022-11-08T09:04:20.968Z,28.05
2022-11-08T09:05:54.188Z,28.83
2022-11-08T09:07:27.325Z,28.30
2022-11-08T09:09:00.878Z,25.48
2022-11-08T09:10:34.054Z,27.05
2022-11-08T09:12:11.953Z,27.20
2022-11-08T09:13:47.713Z,27.13
2022-11-08T09:15:23.047Z,29.02
2022-11-08T09:16:57.237Z,28.02
2022-11-08T09:18:30.737Z,32.00
2022-11-08T09:20:04.452Z,29.92
2022-11-08T09:21:37.901Z,30.90
2022-11-08T09:23:11.992Z,30.63
2022-11-08T09:24:45.203Z,27.73
2022-11-08T09:26:18.410Z,28.35
2022-11-08T09:27:52.672Z,28.92
2022-11-08T09:29:26.014Z,27.88
2022-11-08T09:31:03.099Z,27.23
2022-11-08T09:32:59.024Z,25.45
2022-11-08T09:34:30.278Z,27.40
2022-11-08T09:36:04.220Z,26.33
2022-11-08T09:37:37.423Z,24.13
2022-11-08T09:39:10.550Z,26.00
2022-11-08T09:40:55.076Z,24.52
2022-11-08T09:42:46.495Z,22.98
2022-11-08T09:44:35.943Z,23.13
2022-11-08T09:46:12.678Z,22.45
2022-11-08T09:47:52.917Z,22.27
2022-11-08T09:49:33.164Z,22.73
2022-11-08T09:51:11.441Z,22.83
2022-11-08T09:52:50.588Z,21.90
2022-11-08T09:54:29.181Z,22.58
2022-11-08T09:56:07.873Z,19.08
2022-11-08T09:57:52.960Z,23.90
2022-11-08T09:59:33.873Z,21.40
2022-11-08T10:01:07.087Z,29.55
2022-11-08T10:02:41.770Z,21.63
2022-11-08T10:04:17.544Z,18.40
2022-11-08T10:06:10.260Z,19.25
2022-11-08T10:07:51.019Z,21.08
2022-11-08T10:09:43.706Z,20.73
2022-11-08T10:11:38.259Z,20.75
2022-11-08T10:13:20.106Z,22.70
2022-11-08T10:15:13.256Z,19.55
2022-11-08T10:16:55.128Z,20.23
2022-11-08T10:18:40.544Z,20.40
2022-11-08T10:20:27.064Z,19.08
2022-11-08T10:22:05.025Z,21.80
2022-11-08T10:23:45.454Z,24.42
2022-11-08T10:25:24.359Z,20.00
2022-11-08T10:27:00.501Z,19.55
2022-11-08T10:28:38.058Z,20.42
2022-11-08T10:30:20.843Z,18.92
2022-11-08T10:31:59.482Z,20.13
2022-11-08T10:33:39.083Z,19.50
2022-11-08T10:35:22.975Z,19.75
2022-11-08T10:37:04.390Z,18.38
2022-11-08T10:38:43.189Z,18.13
2022-11-08T10:40:26.430Z,18.63
2022-11-08T10:42:05.847Z,17.45
2022-11-08T10:43:43.578Z,16.58
2022-11-08T10:45:17.289Z,17.38
2022-11-08T10:46:53.932Z,16.88
2022-11-08T10:48:27.265Z,18.50
2022-11-08T10:50:04.364Z,17.58
2022-11-08T10:51:38.321Z,17.60
2022-11-08T10:53:18.738Z,22.17
2022-11-08T10:54:54.057Z,19.05
2022-11-08T10:56:27.246Z,17.55
2022-11-08T10:58:01.707Z,16.60
2022-11-08T10:59:35.190Z,17.00
2022-11-08T11:01:17.108Z,16.48
2022-11-08T11:02:53.055Z,17.63
2022-11-08T11:04:28.845Z,18.70
2022-11-08T11:06:05.116Z,17.48
2022-11-08T11:07:38.606Z,16.98
2022-11-08T11:09:20.957Z,16.48
2022-11-08T11:10:54.651Z,16.00
2022-11-08T11:12:28.144Z,17.52
2022-11-08T11:14:11.869Z,17.40
2022-11-08T11:15:51.170Z,16.80
2022-11-08T11:17:32.819Z,18.08
2022-11-08T11:19:16.157Z,17.80
2022-11-08T11:21:08.458Z,17.33
2022-11-08T11:22:47.872Z,17.17
2022-11-08T11:24:22.641Z,16.90
2022-11-08T11:25:55.868Z,16.83
2022-11-08T11:27:32.334Z,16.58
2022-11-08T11:29:25.203Z,18.38
2022-11-08T11:31:03.062Z,17.23
2022-11-08T11:32:35.942Z,18.25
2022-11-08T11:34:37.525Z,17.80
2022-11-08T11:36:16.937Z,16.23
2022-11-08T11:37:50.832Z,14.65
2022-11-08T11:39:30.629Z,16.60
2022-11-08T11:41:10.950Z,16.65
2022-11-08T11:42:54.576Z,15.18
2022-11-08T11:44:32.716Z,16.08
2022-11-08T11:46:14.740Z,15.13
2022-11-08T11:47:53.471Z,16.15
2022-11-08T11:49:30.562Z,15.85
2022-11-08T11:51:04.135Z,16.15
2022-11-08T11:52:38.962Z,15.18
2022-11-08T11:54:15.095Z,15.15
2022-11-08T11:56:14.517Z,16.02
2022-11-08T11:58:02.265Z,16.60
2022-11-08T11:59:55.197Z,17.20
2022-11-08T12:01:46.157Z,16.02
2022-11-08T12:03:37.116Z,15.43
2022-11-08T12:05:28.684Z,17.50
2022-11-08T12:07:08.549Z,17.00
2022-11-08T12:09:00.602Z,19.20
2022-11-08T12:10:50.039Z,17.80
2022-11-08T12:12:45.972Z,18.67
2022-11-08T12:14:37.144Z,21.33
2022-11-08T12:16:19.978Z,18.02
2022-11-08T12:18:07.521Z,16.02
2022-11-08T12:19:52.478Z,14.13
2022-11-08T12:21:33.671Z,14.68
2022-11-08T12:23:22.302Z,14.05
2022-11-08T12:25:06.019Z,12.95
2022-11-08T12:26:45.997Z,14.30
2022-11-08T12:28:42.034Z,14.30
2022-11-08T12:30:20.624Z,14.88
2022-11-08T12:32:22.698Z,13.10
2022-11-08T12:34:14.182Z,13.43
2022-11-08T12:35:59.626Z,13.75
2022-11-08T12:37:43.983Z,13.45
2022-11-08T12:39:28.965Z,14.05
2022-11-08T12:41:13.990Z,14.55
2022-11-08T12:43:05.083Z,13.05
2022-11-08T12:44:58.849Z,14.05
2022-11-08T12:46:38.255Z,14.15
2022-11-08T12:48:24.564Z,14.95
2022-11-08T12:50:11.901Z,13.90
2022-11-08T12:51:58.083Z,12.43
2022-11-08T12:53:50.768Z,13.50
2022-11-08T12:55:28.510Z,13.15
2022-11-08T12:57:07.154Z,23.27
2022-11-08T12:58:44.553Z,16.60
2022-11-08T13:00:19.568Z,13.52
2022-11-08T13:01:53.884Z,13.50
2022-11-08T13:03:53.021Z,14.93
2022-11-08T13:05:31.538Z,12.65
2022-11-08T13:07:13.212Z,12.07
2022-11-08T13:08:56.717Z,12.88
2022-11-08T13:10:39.213Z,11.93
2022-11-08T13:12:25.219Z,13.98
2022-11-08T13:14:00.716Z,12.80
2022-11-08T13:15:33.922Z,12.27
2022-11-08T13:17:19.772Z,15.38
2022-11-08T13:18:54.607Z,12.55
2022-11-08T13:20:46.346Z,12.70
2022-11-08T13:22:45.283Z,12.23
2022-11-08T13:24:44.697Z,12.65
2022-11-08T13:26:23.396Z,14.82
2022-11-08T13:27:58.720Z,13.85
2022-11-08T13:29:33.480Z,14.15
2022-11-08T13:31:28.919Z,12.55
2022-11-08T13:33:11.309Z,14.15
2022-11-08T13:34:51.840Z,14.02
2022-11-08T13:36:36.911Z,14.48
2022-11-08T13:38:25.617Z,15.52
2022-11-08T13:40:17.661Z,14.63
2022-11-08T13:42:05.363Z,14.77
2022-11-08T13:43:40.562Z,13.52
2022-11-08T13:45:33.559Z,14.27
2022-11-08T13:47:45.062Z,13.20
2022-11-08T13:49:24.317Z,14.80
2022-11-08T13:50:58.419Z,14.25
2022-11-08T13:52:46.676Z,12.65
2022-11-08T13:54:53.183Z,13.63
2022-11-08T13:56:51.185Z,14.48
2022-11-08T13:58:37.466Z,13.35
2022-11-08T14:00:36.412Z,14.75
2022-11-08T14:02:34.178Z,13.73
2022-11-08T14:04:25.708Z,13.85
2022-11-08T14:06:02.785Z,12.27
2022-11-08T14:07:43.778Z,13.45
2022-11-08T14:09:30.737Z,14.55
2022-11-08T14:11:35.669Z,14.43
2022-11-08T14:13:19.417Z,23.40
2022-11-08T14:15:05.315Z,13.73
2022-11-08T14:16:49.376Z,13.10
2022-11-08T14:18:27.530Z,15.27
2022-11-08T14:20:18.636Z,13.85
2022-11-08T14:21:55.034Z,15.10
2022-11-08T14:23:31.150Z,15.70
2022-11-08T14:25:15.435Z,16.50
2022-11-08T14:26:49.811Z,16.20
2022-11-08T14:28:25.541Z,14.68
2022-11-08T14:30:02.470Z,15.23
2022-11-08T14:31:36.052Z,13.75
2022-11-08T14:33:18.653Z,15.35
2022-11-08T14:34:52.308Z,15.90
2022-11-08T14:36:27.573Z,15.50
2022-11-08T14:38:01.244Z,16.10
2022-11-08T14:39:37.717Z,18.38
2022-11-08T14:41:17.990Z,15.13
2022-11-08T14:42:51.974Z,15.57
2022-11-08T14:44:26.410Z,16.25
2022-11-08T14:45:59.863Z,17.40
2022-11-08T14:47:37.043Z,16.45
2022-11-08T14:49:19.516Z,16.98
2022-11-08T14:51:00.039Z,16.60
2022-11-08T14:52:34.393Z,15.57
2022-11-08T14:54:17.639Z,15.70
2022-11-08T14:55:57.806Z,18.00
2022-11-08T14:57:33.584Z,16.17
2022-11-08T14:59:08.291Z,15.23
2022-11-08T16:09:09.256Z,18.33
2022-11-08T16:10:46.446Z,22.25
2022-11-08T16:12:19.672Z,22.33
2022-11-08T16:13:53.014Z,22.45
2022-11-08T16:15:27.493Z,19.63
2022-11-08T16:17:00.788Z,22.50
2022-11-08T16:18:34.396Z,16.65
2022-11-08T16:20:19.919Z,17.42
2022-11-08T16:21:53.761Z,14.60
2022-11-08T16:23:27.318Z,16.63
2022-11-08T16:25:00.448Z,16.38
2022-11-08T16:26:35.732Z,16.50
2022-11-08T16:28:19.481Z,16.83
2022-11-08T16:29:52.940Z,16.98
2022-11-08T16:31:26.129Z,18.98
2022-11-08T16:32:59.879Z,23.17
2022-11-08T16:34:33.912Z,23.00
2022-11-08T16:36:15.961Z,22.27
2022-11-08T16:37:50.904Z,22.95
2022-11-08T16:39:26.282Z,23.38
2022-11-08T16:40:59.660Z,21.98
2022-11-08T16:42:34.450Z,25.17
2022-11-08T16:44:07.805Z,32.55
2022-11-08T16:46:04.422Z,25.45
2022-11-08T16:47:35.190Z,26.48
2022-11-08T16:49:16.365Z,25.08
2022-11-08T16:50:49.870Z,24.02
2022-11-08T16:52:23.144Z,20.27
2022-11-08T16:53:56.551Z,22.95
2022-11-08T16:55:30.783Z,24.48
2022-11-08T16:57:28.660Z,25.77
2022-11-08T16:58:59.118Z,25.50
2022-11-08T17:00:32.234Z,19.52
2022-11-08T17:02:05.566Z,20.65
2022-11-08T17:03:38.952Z,21.13
2022-11-08T17:05:18.936Z,27.00
2022-11-08T17:06:52.113Z,29.15
2022-11-08T17:08:25.871Z,27.13
2022-11-08T17:09:59.072Z,26.48
2022-11-08T17:11:33.332Z,21.40
2022-11-08T17:13:06.536Z,20.20
2022-11-08T17:14:41.413Z,20.00
2022-11-08T17:16:14.921Z,20.30
2022-11-08T17:17:49.705Z,20.58
2022-11-08T17:19:26.851Z,18.42
2022-11-08T17:21:29.900Z,18.30
2022-11-08T17:23:00.142Z,17.60
2022-11-08T17:24:33.873Z,19.02
2022-11-08T17:26:08.066Z,22.85
2022-11-08T17:27:42.024Z,22.00
2022-11-08T17:29:15.318Z,17.60
2022-11-08T17:30:49.932Z,18.63
2022-11-08T17:32:23.050Z,16.77
2022-11-08T17:33:56.621Z,26.30
2022-11-08T17:35:30.178Z,20.85
2022-11-08T17:37:03.443Z,20.73
2022-11-08T17:38:37.254Z,21.17
2022-11-08T17:40:12.020Z,25.88
2022-11-08T17:41:45.729Z,21.42
2022-11-08T17:43:20.103Z,21.95
2022-11-08T17:44:54.495Z,23.27
2022-11-08T17:46:30.165Z,29.67
2022-11-08T17:48:03.662Z,29.55
2022-11-08T17:49:42.855Z,30.10
2022-11-08T17:51:17.197Z,27.25
2022-11-08T17:52:54.171Z,30.63
2022-11-08T17:54:27.515Z,32.35
2022-11-08T17:56:02.340Z,31.80
2022-11-08T17:57:35.625Z,37.78
2022-11-08T17:59:09.008Z,35.72
2022-11-08T18:00:42.889Z,37.15
2022-11-08T18:02:17.858Z,40.33
2022-11-08T18:03:51.196Z,67.25
2022-11-08T18:05:24.359Z,72.57
2022-11-08T18:06:58.275Z,52.35
2022-11-08T18:08:33.703Z,48.95
2022-11-08T18:10:09.247Z,41.45
2022-11-08T18:11:47.651Z,41.42
2022-11-08T18:13:21.698Z,48.03
2022-11-08T18:14:55.045Z,62.58
2022-11-08T18:16:29.727Z,49.80
2022-11-08T18:18:04.322Z,65.63
2022-11-08T18:19:37.818Z,47.33
2022-11-08T18:21:11.767Z,29.13
2022-11-08T18:22:44.981Z,20.55
2022-11-08T18:24:18.374Z,19.98
2022-11-08T18:25:53.474Z,17.67
2022-11-08T18:27:26.627Z,17.92
2022-11-08T18:28:59.972Z,18.42
2022-11-08T18:30:34.397Z,20.85
2022-11-08T18:32:07.900Z,20.90
2022-11-08T18:33:43.161Z,21.00
2022-11-08T18:35:16.579Z,20.58
2022-11-08T18:36:49.770Z,32.58
2022-11-08T18:38:24.588Z,34.30
2022-11-08T18:39:57.958Z,37.97
2022-11-08T18:41:33.097Z,24.33
2022-11-08T18:43:06.501Z,24.50
2022-11-08T18:44:40.913Z,20.48
2022-11-08T18:46:16.808Z,21.75
2022-11-08T18:47:50.348Z,21.73
2022-11-08T18:49:25.237Z,21.85
2022-11-08T18:50:58.735Z,25.30
2022-11-08T18:52:31.850Z,21.85
2022-11-08T18:54:05.286Z,24.23
2022-11-08T18:55:38.441Z,21.48
2022-11-08T18:57:12.529Z,21.02
2022-11-08T18:58:46.633Z,21.42
2022-11-08T19:00:20.163Z,27.77
2022-11-08T19:01:53.404Z,22.90
2022-11-08T19:03:27.995Z,23.73
2022-11-08T19:05:02.846Z,22.33
2022-11-08T19:06:36.214Z,20.40
2022-11-08T19:08:09.373Z,18.80
2022-11-08T19:09:42.978Z,18.90
2022-11-08T19:11:20.506Z,28.60
2022-11-08T19:12:53.853Z,39.20
2022-11-08T19:14:27.192Z,44.47
2022-11-08T19:16:03.884Z,37.92
2022-11-08T19:17:37.292Z,38.75
2022-11-08T19:19:10.524Z,30.40
2022-11-08T19:20:45.071Z,18.92
2022-11-08T19:22:18.862Z,19.50
2022-11-08T19:23:53.633Z,19.38
2022-11-08T19:25:26.988Z,20.73
2022-11-08T19:27:00.288Z,20.52
2022-11-08T19:28:35.992Z,28.73
2022-11-08T19:30:09.769Z,28.75
2022-11-08T19:31:45.479Z,22.48
2022-11-08T19:33:18.996Z,22.80
2022-11-08T19:34:52.812Z,22.27
2022-11-08T19:36:29.430Z,29.65
2022-11-08T19:38:02.776Z,31.80
2022-11-08T19:39:36.055Z,30.58
2022-11-08T19:41:12.001Z,31.25
2022-11-08T19:42:45.679Z,31.63
2022-11-08T19:44:18.996Z,31.58
2022-11-08T19:45:55.296Z,32.85
2022-11-08T19:47:28.762Z,34.22
2022-11-08T19:49:03.891Z,32.03
2022-11-08T19:50:37.152Z,33.95
2022-11-08T19:52:11.810Z,31.17
2022-11-08T19:53:45.865Z,32.58
2022-11-08T19:55:19.142Z,31.55
2022-11-08T19:57:07.729Z,33.30
2022-11-08T19:58:41.057Z,33.78
2022-11-08T20:00:18.114Z,34.67
2022-11-08T20:01:51.421Z,36.53
2022-11-08T20:03:24.761Z,31.73
2022-11-08T20:04:57.975Z,22.38
2022-11-08T20:06:32.588Z,21.23
2022-11-08T20:08:08.681Z,20.92
2022-11-08T20:09:42.099Z,19.70
2022-11-08T20:11:17.402Z,21.20
2022-11-08T20:12:51.053Z,20.33
2022-11-08T20:14:24.291Z,22.08
2022-11-08T20:16:08.669Z,21.92
2022-11-08T20:17:42.674Z,20.42
2022-11-08T20:19:18.055Z,18.88
2022-11-08T20:20:51.195Z,19.95
2022-11-08T20:22:24.465Z,17.77
2022-11-08T20:23:59.335Z,17.15
2022-11-08T20:25:34.499Z,15.57
2022-11-08T20:27:07.783Z,15.85
2022-11-08T20:28:41.894Z,16.70
2022-11-08T20:30:15.776Z,16.35
2022-11-08T20:31:52.244Z,17.95
2022-11-08T20:33:25.457Z,16.63
2022-11-08T20:34:58.836Z,16.15
2022-11-08T20:36:35.410Z,18.92
2022-11-08T20:38:09.199Z,19.73
2022-11-08T20:39:43.858Z,21.02
2022-11-08T20:41:18.811Z,22.35
2022-11-08T20:42:51.967Z,19.52
2022-11-08T20:44:25.879Z,18.58
2022-11-08T20:46:02.422Z,18.77
2022-11-08T20:47:35.965Z,18.55
2022-11-08T20:49:09.942Z,17.05
2022-11-08T20:50:43.473Z,16.77
2022-11-08T20:52:22.108Z,16.77
2022-11-08T20:53:55.290Z,18.30
2022-11-08T20:55:29.811Z,15.88
2022-11-08T20:57:03.502Z,17.38
2022-11-08T20:58:37.649Z,16.08
2022-11-08T21:00:13.731Z,16.98
2022-11-08T21:01:47.398Z,17.05
2022-11-08T21:03:21.050Z,17.20
2022-11-08T21:04:54.324Z,15.32
2022-11-08T21:06:30.066Z,16.77
2022-11-08T21:08:57.984Z,16.42
2022-11-08T21:10:35.905Z,15.05
2022-11-08T21:11:56.729Z,15.65
2022-11-08T21:13:33.276Z,16.35
2022-11-08T21:15:07.166Z,17.02
2022-11-08T21:17:14.601Z,16.92
2022-11-08T21:18:37.648Z,15.88
2022-11-08T21:20:12.999Z,17.27
2022-11-08T21:21:47.339Z,16.02
2022-11-08T21:23:20.913Z,16.83
2022-11-08T21:24:54.066Z,17.65
2022-11-08T21:26:27.673Z,16.83
2022-11-08T21:28:02.270Z,17.95
2022-11-08T21:29:35.780Z,16.55
2022-11-08T21:31:10.761Z,17.50
2022-11-08T21:32:44.263Z,15.68
2022-11-08T21:34:17.679Z,15.38
2022-11-08T21:35:51.376Z,17.77
2022-11-08T21:37:24.786Z,19.25
2022-11-08T21:38:58.108Z,19.17
2022-11-08T21:40:31.342Z,19.17
2022-11-08T21:42:04.838Z,18.33
2022-11-08T21:43:43.052Z,23.70
2022-11-08T21:45:16.615Z,25.42
2022-11-08T21:46:49.745Z,25.30
2022-11-08T21:48:23.530Z,23.92
2022-11-08T21:49:56.699Z,21.58
2022-11-08T21:51:31.585Z,21.27
2022-11-08T21:53:06.185Z,22.27
2022-11-08T21:54:40.486Z,20.58
2022-11-08T21:56:13.795Z,20.95
2022-11-08T21:57:47.376Z,20.63
2022-11-08T21:59:22.067Z,20.80